Time;durP1;ratioP1;P1;durP2;ratioP2;P2;SDS_P1;SDS_P2;PMS_P1;PMS_P2;Temp;Humidity;BMP_temperature;BMP_pressure;BME280_temperature;BME280_humidity;BME280_pressure;Samples;Min_cycle;Max_cycle;Signal;HPM_P1;HPM_P2
2021/04/05 00:01:28;;;;;;;26.23;16.95;;;7.70;97.70;;;;;;5082117;28;20224;-81
2021/04/05 00:03:54;;;;;;;22.25;15.20;;;7.70;97.80;;;;;;5082277;28;20196;-81
2021/04/05 00:06:22;;;;;;;28.77;18.08;;;7.70;97.80;;;;;;5079139;28;20231;-81
2021/04/05 00:08:48;;;;;;;31.23;17.27;;;7.70;97.90;;;;;;5083174;28;20198;-81
2021/04/05 00:11:15;;;;;;;23.58;16.10;;;7.70;98.00;;;;;;5083306;28;20203;-80
2021/04/05 00:13:43;;;;;;;23.08;14.85;;;7.70;98.10;;;;;;5084623;28;20295;-81
2021/04/05 00:16:11;;;;;;;21.98;15.02;;;7.70;98.00;;;;;;5085464;28;20238;-81
2021/04/05 00:18:37;;;;;;;21.60;15.18;;;7.70;98.40;;;;;;5083717;28;20199;-81
2021/04/05 00:21:07;;;;;;;23.15;14.75;;;7.70;98.00;;;;;;5082165;28;20203;-80
2021/04/05 00:23:34;;;;;;;26.10;15.98;;;7.70;98.10;;;;;;5085798;28;20192;-80
2021/04/05 00:26:01;;;;;;;20.70;14.45;;;7.70;98.10;;;;;;5085294;28;20196;-81
2021/04/05 00:28:27;;;;;;;23.73;14.27;;;7.70;98.30;;;;;;5083353;28;20212;-81
2021/04/05 00:30:54;;;;;;;25.52;14.68;;;7.80;98.30;;;;;;5080346;28;20194;-81
2021/04/05 00:33:22;;;;;;;22.48;14.48;;;7.80;98.30;;;;;;5080222;28;20230;-81
2021/04/05 00:35:49;;;;;;;20.35;13.60;;;7.80;98.40;;;;;;5083839;28;20200;-82
2021/04/05 00:38:16;;;;;;;26.55;15.88;;;7.80;98.40;;;;;;5079645;28;20199;-81
2021/04/05 00:40:47;;;;;;;20.90;14.40;;;7.80;98.40;;;;;;5076987;28;20311;-82
2021/04/05 00:43:15;;;;;;;27.42;15.23;;;7.80;98.40;;;;;;5078730;28;20276;-81
2021/04/05 00:45:42;;;;;;;24.02;14.95;;;7.80;98.40;;;;;;5077242;28;20188;-81
2021/04/05 00:48:11;;;;;;;29.60;15.75;;;7.80;98.50;;;;;;5078720;28;20218;-82
2021/04/05 00:50:45;;;;;;;27.58;15.68;;;7.80;98.50;;;;;;5080466;28;20188;-81
2021/04/05 00:53:13;;;;;;;20.15;15.05;;;7.90;98.60;;;;;;5081177;28;20244;-81
2021/04/05 00:55:42;;;;;;;35.10;16.17;;;7.90;98.60;;;;;;5076498;28;20780;-83
2021/04/05 00:58:09;;;;;;;35.90;17.52;;;7.90;98.60;;;;;;5075269;28;20195;-82
2021/04/05 01:00:39;;;;;;;32.88;18.48;;;7.90;98.60;;;;;;5079319;28;20406;-81
2021/04/05 01:03:07;;;;;;;32.67;18.65;;;7.90;98.60;;;;;;5081406;28;20210;-82
2021/04/05 01:05:34;;;;;;;30.98;16.35;;;7.90;98.70;;;;;;5085349;28;20252;-82
2021/04/05 01:08:03;;;;;;;30.25;18.05;;;7.90;98.70;;;;;;5078618;28;20220;-81
2021/04/05 01:10:29;;;;;;;27.83;19.15;;;7.90;98.70;;;;;;5075683;28;20280;-83
2021/04/05 01:12:56;;;;;;;27.23;17.88;;;7.90;98.80;;;;;;5075216;28;20212;-81
2021/04/05 01:15:22;;;;;;;34.45;19.10;;;7.90;98.80;;;;;;5080632;28;20257;-81
2021/04/05 01:17:50;;;;;;;31.33;18.45;;;8.00;98.80;;;;;;5088485;28;20202;-80
2021/04/05 01:20:18;;;;;;;29.80;18.83;;;8.00;98.80;;;;;;5081640;28;20694;-83
2021/04/05 01:22:47;;;;;;;29.58;18.42;;;8.00;98.80;;;;;;5080107;28;20256;-82
2021/04/05 01:25:17;;;;;;;28.52;19.65;;;8.00;98.70;;;;;;5081910;28;20187;-81
2021/04/05 01:27:45;;;;;;;32.95;19.88;;;8.00;98.80;;;;;;5085504;28;20642;-81
2021/04/05 01:30:27;;;;;;;29.70;20.25;;;8.00;98.80;;;;;;5077578;28;20553;-81
2021/04/05 01:33:04;;;;;;;31.50;19.55;;;8.00;98.80;;;;;;5077325;28;20188;-81
2021/04/05 01:35:32;;;;;;;31.73;20.05;;;8.00;98.80;;;;;;5082088;28;20205;-81
2021/04/05 01:38:00;;;;;;;29.15;20.52;;;8.00;98.70;;;;;;5075430;28;20193;-81
2021/04/05 01:40:27;;;;;;;38.58;21.00;;;8.00;98.70;;;;;;5078886;28;20234;-82
2021/04/05 01:42:54;;;;;;;28.95;19.10;;;8.00;98.70;;;;;;5080292;28;20201;-82
2021/04/05 01:45:20;;;;;;;35.42;21.33;;;8.00;98.70;;;;;;5079817;28;20191;-82
2021/04/05 01:47:47;;;;;;;32.58;20.90;;;8.00;98.60;;;;;;5074844;28;20261;-82
2021/04/05 01:50:15;;;;;;;32.67;21.05;;;8.00;98.70;;;;;;5073277;28;20200;-81
2021/04/05 01:52:41;;;;;;;34.25;21.17;;;8.00;98.60;;;;;;5076769;28;20200;-80
2021/04/05 01:55:10;;;;;;;33.28;20.92;;;8.00;98.60;;;;;;5080655;28;20290;-82
2021/04/05 01:57:37;;;;;;;33.90;20.17;;;8.00;98.70;;;;;;5080598;28;20280;-81
2021/04/05 02:00:08;;;;;;;35.40;20.63;;;8.00;98.70;;;;;;5074588;28;20279;-81
2021/04/05 02:02:35;;;;;;;38.70;20.05;;;8.00;98.70;;;;;;5073179;28;20239;-80
2021/04/05 02:05:02;;;;;;;31.77;19.23;;;8.00;98.60;;;;;;5080149;28;20195;-81
2021/04/05 02:07:28;;;;;;;33.35;21.10;;;8.00;98.70;;;;;;5080718;28;20449;-82
2021/04/05 02:09:55;;;;;;;30.55;20.05;;;8.00;98.80;;;;;;5078455;28;20562;-82
2021/04/05 02:12:22;;;;;;;29.30;17.80;;;8.10;98.70;;;;;;5081394;28;20654;-81
2021/04/05 02:14:49;;;;;;;31.00;18.60;;;8.10;98.70;;;;;;5080873;28;20199;-82
2021/04/05 02:17:15;;;;;;;28.70;18.52;;;8.10;98.70;;;;;;5080382;28;20734;-82
2021/04/05 02:19:41;;;;;;;27.83;17.42;;;8.10;98.70;;;;;;5083092;28;20211;-83
2021/04/05 02:22:08;;;;;;;34.42;17.80;;;8.10;98.70;;;;;;5079092;28;20204;-81
2021/04/05 02:24:35;;;;;;;23.17;15.95;;;8.10;98.80;;;;;;5078359;28;20187;-81
2021/04/05 02:27:03;;;;;;;24.27;16.50;;;8.10;98.80;;;;;;5080161;28;20196;-81
2021/04/05 02:29:30;;;;;;;23.52;14.80;;;8.10;99.20;;;;;;5082259;28;20191;-83
2021/04/05 02:31:57;;;;;;;24.83;15.77;;;8.10;98.80;;;;;;5078979;28;20275;-81
2021/04/05 02:34:25;;;;;;;23.70;16.08;;;8.10;98.90;;;;;;5083530;28;20188;-82
2021/04/05 02:36:51;;;;;;;32.80;16.15;;;8.10;98.90;;;;;;5078451;28;20207;-82
2021/04/05 02:39:18;;;;;;;25.98;13.80;;;8.10;98.90;;;;;;5075893;28;20463;-81
2021/04/05 02:41:46;;;;;;;24.65;15.30;;;8.10;98.90;;;;;;5083134;28;20196;-81
2021/04/05 02:44:13;;;;;;;22.45;13.95;;;8.10;99.00;;;;;;5076064;28;20204;-83
2021/04/05 02:46:41;;;;;;;24.08;14.65;;;8.10;98.90;;;;;;5084525;28;20198;-81
2021/04/05 02:49:11;;;;;;;26.05;15.20;;;8.10;99.00;;;;;;5076219;28;20197;-82
2021/04/05 02:51:41;;;;;;;26.88;16.23;;;8.10;99.00;;;;;;5081886;28;20550;-81
2021/04/05 02:54:08;;;;;;;33.33;13.50;;;8.10;99.10;;;;;;5082311;28;20218;-83
2021/04/05 02:56:37;;;;;;;26.17;14.55;;;8.10;99.10;;;;;;5076302;28;20200;-81
2021/04/05 02:59:04;;;;;;;23.17;13.93;;;8.10;99.10;;;;;;5084415;28;20224;-81
2021/04/05 03:01:32;;;;;;;25.17;13.07;;;8.10;99.10;;;;;;5079962;28;20226;-80
2021/04/05 03:04:00;;;;;;;27.02;14.02;;;8.10;99.10;;;;;;5082330;28;20249;-81
2021/04/05 03:06:29;;;;;;;22.05;14.57;;;8.00;99.10;;;;;;5080526;28;20188;-81
2021/04/05 03:08:57;;;;;;;29.15;14.63;;;8.00;99.00;;;;;;5080499;28;20275;-82
2021/04/05 03:11:25;;;;;;;27.48;13.98;;;8.00;99.00;;;;;;5076671;28;20192;-82
2021/04/05 03:13:52;;;;;;;25.95;16.23;;;8.00;99.10;;;;;;5077160;28;20249;-80
2021/04/05 03:16:20;;;;;;;29.85;16.48;;;8.00;99.10;;;;;;5086416;28;20246;-81
2021/04/05 03:18:48;;;;;;;27.48;14.73;;;8.00;99.10;;;;;;5080513;28;20604;-80
2021/04/05 03:21:16;;;;;;;35.00;14.20;;;8.00;99.10;;;;;;5078848;28;20203;-81
2021/04/05 03:23:43;;;;;;;25.52;14.48;;;8.00;99.10;;;;;;5078818;28;20196;-82
2021/04/05 03:26:11;;;;;;;21.13;13.23;;;8.00;99.10;;;;;;5085643;28;20325;-81
2021/04/05 03:28:37;;;;;;;25.60;14.57;;;8.00;99.30;;;;;;5084056;28;20191;-81
2021/04/05 03:31:09;;;;;;;31.67;15.00;;;8.00;99.10;;;;;;5083012;28;20276;-81
2021/04/05 03:33:41;;;;;;;21.65;12.98;;;7.90;99.00;;;;;;5079680;28;20196;-81
2021/04/05 03:36:13;;;;;;;26.05;13.63;;;7.90;99.10;;;;;;5086293;28;20192;-82
2021/04/05 03:38:41;;;;;;;25.00;14.40;;;7.90;99.10;;;;;;5085874;28;20197;-81
2021/04/05 03:41:15;;;;;;;27.30;14.70;;;7.80;99.10;;;;;;5086147;28;20196;-80
2021/04/05 03:43:48;;;;;;;24.63;12.85;;;7.90;99.30;;;;;;5083474;28;20327;-81
2021/04/05 03:46:21;;;;;;;21.85;14.60;;;7.90;99.20;;;;;;5081389;28;20262;-81
2021/04/05 03:48:56;;;;;;;29.67;13.55;;;7.90;99.30;;;;;;5084528;28;20199;-81
2021/04/05 03:51:28;;;;;;;28.17;12.27;;;7.80;99.30;;;;;;5076431;28;20189;-81
2021/04/05 03:53:58;;;;;;;27.67;13.38;;;7.90;99.40;;;;;;5084374;28;20548;-82
2021/04/05 03:56:31;;;;;;;29.17;15.43;;;7.80;99.40;;;;;;5083006;28;20192;-82
2021/04/05 03:59:04;;;;;;;26.40;14.05;;;7.90;99.50;;;;;;5083601;28;20603;-81
2021/04/05 04:01:31;;;;;;;21.17;13.02;;;7.90;99.90;;;;;;5085205;28;20222;-81
2021/04/05 04:04:05;;;;;;;20.73;13.40;;;7.90;99.70;;;;;;5079875;28;20198;-80
2021/04/05 04:06:37;;;;;;;27.85;14.98;;;7.90;99.70;;;;;;5082069;28;20761;-81
2021/04/05 04:09:06;;;;;;;22.48;13.30;;;7.90;99.80;;;;;;5081771;28;20199;-81
2021/04/05 04:11:35;;;;;;;24.13;14.13;;;7.90;99.80;;;;;;5082309;28;20196;-81
2021/04/05 04:14:05;;;;;;;22.98;12.55;;;7.90;99.90;;;;;;5079820;28;20191;-82
2021/04/05 04:16:32;;;;;;;25.48;13.65;;;7.90;99.90;;;;;;5084114;28;20215;-81
2021/04/05 04:19:03;;;;;;;19.75;13.15;;;7.90;99.90;;;;;;5085342;28;20200;-82
2021/04/05 04:21:30;;;;;;;23.15;12.07;;;7.90;99.90;;;;;;5079782;28;20605;-81
2021/04/05 04:23:57;;;;;;;25.48;13.68;;;7.90;99.90;;;;;;5078852;28;20813;-83
2021/04/05 04:26:24;;;;;;;21.30;13.80;;;8.00;99.90;;;;;;5079630;28;20195;-82
2021/04/05 04:28:51;;;;;;;17.67;11.95;;;7.90;99.90;;;;;;5077688;28;20197;-81
2021/04/05 04:31:20;;;;;;;24.45;14.23;;;8.00;99.90;;;;;;5076232;28;20203;-81
2021/04/05 04:33:48;;;;;;;30.92;12.77;;;8.00;99.90;;;;;;5083358;28;20193;-81
2021/04/05 04:36:20;;;;;;;18.73;12.88;;;8.00;99.90;;;;;;5081207;28;20192;-81
2021/04/05 04:38:47;;;;;;;25.00;12.75;;;8.00;99.90;;;;;;5077061;28;20581;-81
2021/04/05 04:41:20;;;;;;;32.00;14.18;;;8.00;99.90;;;;;;5080308;28;20191;-82
2021/04/05 04:43:52;;;;;;;24.30;13.52;;;8.00;99.90;;;;;;5083004;28;20739;-81
2021/04/05 04:46:18;;;;;;;24.40;13.43;;;8.00;99.90;;;;;;5081550;28;20195;-81
2021/04/05 04:48:45;;;;;;;22.88;13.20;;;8.00;99.90;;;;;;5082524;28;20245;-82
2021/04/05 04:51:11;;;;;;;23.40;13.68;;;8.00;99.90;;;;;;5078008;28;20263;-82
2021/04/05 04:53:37;;;;;;;23.83;14.38;;;8.00;99.90;;;;;;5079149;28;20185;-81
2021/04/05 04:56:05;;;;;;;22.50;13.30;;;8.00;99.90;;;;;;5078397;28;20639;-83
2021/04/05 04:58:32;;;;;;;23.40;14.05;;;8.00;99.90;;;;;;5073704;28;20203;-81
2021/04/05 05:00:59;;;;;;;28.17;14.65;;;8.00;99.90;;;;;;5080821;28;20227;-81
2021/04/05 05:03:27;;;;;;;23.98;15.68;;;8.00;99.90;;;;;;5083627;28;20670;-82
2021/04/05 05:05:54;;;;;;;29.98;15.30;;;8.00;99.90;;;;;;5079256;28;20195;-82
2021/04/05 05:08:21;;;;;;;25.95;14.82;;;8.00;99.90;;;;;;5081700;28;20194;-81
2021/04/05 05:10:48;;;;;;;30.83;15.40;;;8.00;99.90;;;;;;5082916;28;20196;-81
2021/04/05 05:13:14;;;;;;;26.80;15.60;;;8.10;99.90;;;;;;5076893;28;20279;-82
2021/04/05 05:15:43;;;;;;;25.95;15.82;;;8.10;99.90;;;;;;5076248;28;20224;-82
2021/04/05 05:18:12;;;;;;;24.13;16.83;;;8.10;99.90;;;;;;5080856;28;20188;-81
2021/04/05 05:20:38;;;;;;;26.55;17.33;;;8.10;99.90;;;;;;5081849;28;20224;-81
2021/04/05 05:23:06;;;;;;;29.98;16.60;;;8.10;99.90;;;;;;5078032;28;20539;-81
2021/04/05 05:25:33;;;;;;;24.33;15.98;;;8.10;99.90;;;;;;5080215;28;20194;-82
2021/04/05 05:28:03;;;;;;;36.60;19.98;;;8.10;99.90;;;;;;5076805;28;20184;-82
2021/04/05 05:30:31;;;;;;;34.03;18.65;;;8.20;99.90;;;;;;5080211;28;20188;-81
2021/04/05 05:33:00;;;;;;;29.90;16.42;;;8.10;99.90;;;;;;5083585;28;20247;-82
2021/04/05 05:35:28;;;;;;;30.88;17.65;;;8.20;99.90;;;;;;5083529;28;20588;-80
2021/04/05 05:37:59;;;;;;;32.28;18.23;;;8.20;99.90;;;;;;5075466;28;20204;-81
2021/04/05 05:40:27;;;;;;;27.63;16.42;;;8.20;99.90;;;;;;5076924;28;20306;-82
2021/04/05 05:43:16;;;;;;;28.20;16.85;;;8.20;99.90;;;;;;5080661;28;20692;-81
2021/04/05 05:45:52;;;;;;;25.45;16.58;;;8.20;99.90;;;;;;5074193;28;20401;-82
2021/04/05 05:48:25;;;;;;;28.55;16.98;;;8.30;99.90;;;;;;5080585;28;20192;-80
2021/04/05 05:51:00;;;;;;;27.45;16.55;;;8.20;99.90;;;;;;5081964;28;20203;-82
2021/04/05 05:53:42;;;;;;;32.38;17.50;;;8.20;99.90;;;;;;5074336;28;20200;-81
2021/04/05 05:56:24;;;;;;;26.02;18.55;;;8.20;99.90;;;;;;5078002;28;20742;-81
2021/04/05 05:58:56;;;;;;;33.42;18.23;;;8.20;99.90;;;;;;5078912;28;20192;-81
2021/04/05 06:01:36;;;;;;;30.38;19.33;;;8.20;99.90;;;;;;5081034;28;20701;-81
2021/04/05 06:04:14;;;;;;;31.40;18.80;;;8.10;99.90;;;;;;5081586;28;20222;-82
2021/04/05 06:07:00;;;;;;;27.35;19.40;;;8.10;99.90;;;;;;5082486;28;20196;-81
2021/04/05 06:09:39;;;;;;;46.03;17.85;;;8.10;99.90;;;;;;5076961;28;20184;-82
2021/04/05 06:12:12;;;;;;;34.85;18.75;;;8.20;99.90;;;;;;5081203;28;20180;-80
2021/04/05 06:14:49;;;;;;;31.80;17.95;;;8.20;99.90;;;;;;5083256;28;20197;-82
2021/04/05 06:17:24;;;;;;;34.35;18.10;;;8.20;99.90;;;;;;5081700;28;20191;-83
2021/04/05 06:19:52;;;;;;;38.08;18.67;;;8.20;99.90;;;;;;5078176;28;20236;-83
2021/04/05 06:22:44;;;;;;;36.63;20.13;;;8.20;99.90;;;;;;5081024;28;20524;-81
2021/04/05 06:25:18;;;;;;;31.67;18.77;;;8.20;99.90;;;;;;5074266;28;20743;-80
2021/04/05 06:27:53;;;;;;;38.88;20.55;;;8.20;99.90;;;;;;5077214;28;20207;-80
2021/04/05 06:30:25;;;;;;;35.30;19.35;;;8.20;99.90;;;;;;5079370;28;20219;-83
2021/04/05 06:32:57;;;;;;;40.33;20.98;;;8.20;99.90;;;;;;5084434;28;20237;-81
2021/04/05 06:35:51;;;;;;;29.75;20.35;;;8.20;99.90;;;;;;5086173;28;20830;-80
2021/04/05 06:38:22;;;;;;;25.45;16.88;;;8.20;99.90;;;;;;5086159;28;20187;-82
2021/04/05 06:40:51;;;;;;;38.60;20.00;;;8.20;99.90;;;;;;5082980;28;20216;-80
2021/04/05 06:43:34;;;;;;;35.80;19.63;;;8.20;99.90;;;;;;5073354;28;20753;-81
2021/04/05 06:46:11;;;;;;;31.92;19.55;;;8.20;99.90;;;;;;5080118;28;20245;-80
2021/04/05 06:49:19;;;;;;;38.30;20.23;;;8.20;99.90;;;;;;5086638;28;20232;-81
2021/04/05 06:52:14;;;;;;;33.53;19.08;;;8.30;99.90;;;;;;5092956;28;20206;-82
2021/04/05 06:55:14;;;;;;;31.85;18.60;;;8.30;99.90;;;;;;5087510;28;20295;-81
2021/04/05 06:57:58;;;;;;;35.85;18.35;;;8.30;99.90;;;;;;5090674;28;20191;-80
2021/04/05 07:00:33;;;;;;;37.47;19.75;;;8.40;99.90;;;;;;5091386;28;20247;-80
2021/04/05 07:03:18;;;;;;;43.92;21.15;;;8.40;99.90;;;;;;5084269;28;20261;-82
2021/04/05 07:06:11;;;;;;;33.88;19.17;;;8.40;99.90;;;;;;5084685;28;20192;-81
2021/04/05 07:08:55;;;;;;;35.80;19.52;;;8.40;99.90;;;;;;5083155;28;20229;-81
2021/04/05 07:11:27;;;;;;;35.88;20.10;;;8.50;99.90;;;;;;5084108;28;20191;-81
2021/04/05 07:14:08;;;;;;;33.45;18.25;;;8.50;99.90;;;;;;5077854;28;20201;-82
2021/04/05 07:16:50;;;;;;;37.08;18.92;;;8.50;99.90;;;;;;5084102;28;20203;-79
2021/04/05 07:19:30;;;;;;;28.83;18.42;;;8.50;99.90;;;;;;5089543;28;20245;-81
2021/04/05 07:22:11;;;;;;;30.02;19.15;;;8.50;99.90;;;;;;5081933;28;20338;-81
2021/04/05 07:24:48;;;;;;;32.90;19.50;;;8.60;99.90;;;;;;5084922;28;20198;-82
2021/04/05 07:27:20;;;;;;;38.08;20.13;;;8.60;99.90;;;;;;5083162;28;20736;-82
2021/04/05 07:29:54;;;;;;;32.40;19.08;;;8.70;99.90;;;;;;5077217;28;20227;-81
2021/04/05 07:32:29;;;;;;;33.20;19.30;;;8.70;99.90;;;;;;5079630;28;20199;-81
2021/04/05 07:35:04;;;;;;;31.95;17.63;;;8.70;99.90;;;;;;5085913;28;20247;-80
2021/04/05 07:37:48;;;;;;;40.92;20.55;;;8.70;99.90;;;;;;5083560;28;20638;-80
2021/04/05 07:40:25;;;;;;;31.02;19.20;;;8.70;99.90;;;;;;5083661;28;20796;-81
2021/04/05 07:43:01;;;;;;;25.95;18.95;;;8.70;99.90;;;;;;5086063;28;20203;-80
2021/04/05 07:45:37;;;;;;;33.50;20.10;;;8.70;99.90;;;;;;5081289;28;20195;-81
2021/04/05 07:48:10;;;;;;;33.13;18.88;;;8.80;99.90;;;;;;5081451;28;20202;-81
2021/04/05 07:50:42;;;;;;;27.63;17.45;;;8.80;99.90;;;;;;5085631;28;20662;-80
2021/04/05 07:53:18;;;;;;;35.25;18.95;;;8.80;99.90;;;;;;5083774;28;20229;-80
2021/04/05 07:55:47;;;;;;;32.85;18.33;;;8.80;99.90;;;;;;5086895;28;20269;-78
2021/04/05 07:58:21;;;;;;;27.50;17.42;;;8.80;99.90;;;;;;5083479;28;20203;-78
2021/04/05 08:01:03;;;;;;;23.60;14.10;;;8.70;99.90;;;;;;5080172;28;20228;-78
2021/04/05 08:03:46;;;;;;;12.60;8.80;;;8.60;99.90;;;;;;5092071;28;20203;-78
2021/04/05 08:06:15;;;;;;;6.20;4.97;;;8.40;99.90;;;;;;5075902;28;20504;-77
2021/04/05 08:08:48;;;;;;;7.75;4.70;;;8.20;99.90;;;;;;5089895;28;20196;-79
2021/04/05 08:11:39;;;;;;;6.25;3.85;;;8.00;99.90;;;;;;5085597;28;20937;-78
2021/04/05 08:14:24;;;;;;;11.95;4.47;;;7.80;99.90;;;;;;5076623;28;20204;-78
2021/04/05 08:16:58;;;;;;;4.53;4.13;;;7.60;99.90;;;;;;5080399;28;20273;-79
2021/04/05 08:19:38;;;;;;;5.55;4.25;;;7.50;99.90;;;;;;5083481;28;20213;-79
2021/04/05 08:22:13;;;;;;;6.30;5.00;;;7.40;99.90;;;;;;5085647;28;20252;-79
2021/04/05 08:24:55;;;;;;;9.02;4.85;;;7.40;99.90;;;;;;5088383;28;20196;-79
2021/04/05 08:27:26;;;;;;;9.07;5.15;;;7.30;99.90;;;;;;5087384;28;20195;-79
2021/04/05 08:30:01;;;;;;;5.93;4.35;;;7.20;99.90;;;;;;5084234;28;20206;-78
2021/04/05 08:32:42;;;;;;;4.38;3.97;;;7.20;99.90;;;;;;5084296;28;20204;-78
2021/04/05 08:35:28;;;;;;;5.13;4.00;;;7.20;99.90;;;;;;5093549;28;20706;-81
2021/04/05 08:38:00;;;;;;;5.43;3.38;;;7.10;99.90;;;;;;5080341;28;20232;-81
2021/04/05 08:40:31;;;;;;;7.03;3.50;;;7.10;99.90;;;;;;5081247;28;20216;-79
2021/04/05 08:43:09;;;;;;;6.80;3.88;;;7.10;99.90;;;;;;5082654;28;20200;-79
2021/04/05 08:45:43;;;;;;;7.65;2.60;;;7.00;99.90;;;;;;5077817;28;20215;-80
2021/04/05 08:48:14;;;;;;;7.03;3.00;;;7.00;99.90;;;;;;5074883;28;20193;-79
2021/04/05 08:50:42;;;;;;;6.88;2.83;;;6.90;99.90;;;;;;5088875;28;20196;-80
2021/04/05 08:53:11;;;;;;;3.72;2.92;;;6.90;99.90;;;;;;5086093;28;20203;-80
2021/04/05 08:55:40;;;;;;;7.30;3.10;;;6.90;99.90;;;;;;5079590;28;20619;-80
2021/04/05 08:58:09;;;;;;;5.20;2.92;;;6.90;99.90;;;;;;5089045;28;20206;-80
2021/04/05 09:00:41;;;;;;;5.70;2.50;;;6.90;99.90;;;;;;5084654;28;20323;-80
2021/04/05 09:03:09;;;;;;;6.53;3.88;;;6.90;99.90;;;;;;5079933;28;20196;-81
2021/04/05 09:05:41;;;;;;;2.53;1.85;;;6.90;99.90;;;;;;5087268;28;20651;-81
2021/04/05 09:08:09;;;;;;;2.55;1.95;;;6.80;99.90;;;;;;5086000;28;20196;-80
2021/04/05 09:10:43;;;;;;;4.13;3.00;;;6.80;99.90;;;;;;5082302;28;20196;-81
2021/04/05 09:13:13;;;;;;;2.25;2.15;;;6.70;99.90;;;;;;5078822;28;20199;-79
2021/04/05 09:16:01;;;;;;;2.03;1.83;;;6.70;99.90;;;;;;5085401;28;20614;-80
2021/04/05 09:19:07;;;;;;;3.38;2.00;;;6.70;99.90;;;;;;5081176;28;20207;-79
2021/04/05 09:22:10;;;;;;;4.82;1.77;;;6.60;99.90;;;;;;5077539;28;20621;-81
2021/04/05 09:25:01;;;;;;;1.88;1.63;;;6.50;99.90;;;;;;5078236;28;20195;-80
2021/04/05 09:27:58;;;;;;;3.47;2.67;;;6.50;99.90;;;;;;5078687;28;20211;-81
2021/04/05 09:30:44;;;;;;;2.65;2.13;;;6.50;99.90;;;;;;5078087;28;20569;-83
2021/04/05 09:33:34;;;;;;;6.40;2.38;;;6.40;99.90;;;;;;5085977;28;20211;-80
2021/04/05 09:36:16;;;;;;;9.25;3.38;;;6.40;99.90;;;;;;5082114;28;20184;-81
2021/04/05 09:39:12;;;;;;;10.75;2.95;;;6.30;99.90;;;;;;5076884;28;20280;-80
2021/04/05 09:42:00;;;;;;;3.72;2.47;;;6.10;99.90;;;;;;5085898;28;20365;-82
2021/04/05 09:44:53;;;;;;;5.78;2.67;;;6.00;99.90;;;;;;5089420;28;20200;-80
2021/04/05 09:47:36;;;;;;;4.53;2.60;;;5.90;99.90;;;;;;5057633;28;20204;-80
2021/04/05 09:50:25;;;;;;;12.18;3.38;;;5.90;99.90;;;;;;5085596;28;20259;-81
2021/04/05 09:53:21;;;;;;;8.63;2.50;;;5.80;99.90;;;;;;5091911;28;20191;-80
2021/04/05 09:55:49;;;;;;;6.50;2.72;;;5.70;99.90;;;;;;5089479;28;20314;-79
2021/04/05 09:58:22;;;;;;;7.40;2.90;;;5.70;99.90;;;;;;5089263;28;20186;-81
2021/04/05 10:00:51;;;;;;;6.68;2.72;;;5.60;99.90;;;;;;5082190;28;20230;-80
2021/04/05 10:03:20;;;;;;;8.50;3.45;;;5.60;99.90;;;;;;5080250;28;20331;-82
2021/04/05 10:05:50;;;;;;;5.57;3.55;;;5.60;99.90;;;;;;5089678;28;20206;-81
2021/04/05 10:08:22;;;;;;;5.00;3.00;;;5.60;99.90;;;;;;5087551;28;20208;-80
2021/04/05 10:10:50;;;;;;;13.32;3.10;;;5.60;99.90;;;;;;5081149;28;20779;-81
2021/04/05 10:13:19;;;;;;;6.53;3.03;;;5.50;99.90;;;;;;5083379;28;20194;-80
2021/04/05 10:15:49;;;;;;;4.97;2.65;;;5.60;99.90;;;;;;5078059;28;20195;-79
2021/04/05 10:18:16;;;;;;;10.25;2.80;;;5.50;99.90;;;;;;5080431;28;20201;-81
2021/04/05 10:20:48;;;;;;;17.60;4.10;;;5.50;99.90;;;;;;5076174;28;20691;-82
2021/04/05 10:23:19;;;;;;;6.05;2.70;;;5.50;99.90;;;;;;5081898;28;20198;-81
2021/04/05 10:25:51;;;;;;;7.00;3.50;;;5.50;99.90;;;;;;5083082;28;20199;-84
2021/04/05 10:28:19;;;;;;;6.03;3.10;;;5.50;99.90;;;;;;5082476;28;20197;-84
2021/04/05 10:30:51;;;;;;;9.63;3.50;;;5.50;99.90;;;;;;5086459;28;20756;-80
2021/04/05 10:33:22;;;;;;;9.50;4.13;;;5.60;99.90;;;;;;5084197;28;20214;-80
2021/04/05 10:35:55;;;;;;;12.68;4.20;;;5.70;99.90;;;;;;5082164;28;20196;-81
2021/04/05 10:38:22;;;;;;;11.02;4.00;;;5.70;99.90;;;;;;5085932;28;20199;-80
2021/04/05 10:40:51;;;;;;;5.00;3.22;;;5.80;99.90;;;;;;5083280;28;20298;-81
2021/04/05 10:43:21;;;;;;;3.67;2.50;;;5.80;99.90;;;;;;5098189;28;20239;-80
2021/04/05 10:45:55;;;;;;;7.20;3.15;;;5.90;99.90;;;;;;5083665;28;20203;-80
2021/04/05 10:48:25;;;;;;;6.25;3.83;;;5.90;99.90;;;;;;5092798;28;20195;-79
2021/04/05 10:50:58;;;;;;;5.53;3.30;;;6.00;99.90;;;;;;5096505;28;20199;-81
2021/04/05 10:53:27;;;;;;;5.97;2.65;;;6.10;99.90;;;;;;5096699;28;20207;-80
2021/04/05 10:55:59;;;;;;;17.30;3.67;;;6.10;99.90;;;;;;5094886;28;20208;-80
2021/04/05 10:58:31;;;;;;;8.63;3.83;;;6.10;99.90;;;;;;5099137;28;20202;-81
2021/04/05 11:00:59;;;;;;;6.82;3.33;;;6.10;99.90;;;;;;5084506;28;20699;-81
2021/04/05 11:03:28;;;;;;;10.90;5.85;;;6.10;99.90;;;;;;5092332;28;20191;-82
2021/04/05 11:05:59;;;;;;;4.63;3.15;;;6.20;99.90;;;;;;5086777;28;20206;-80
2021/04/05 11:08:29;;;;;;;5.00;3.40;;;6.20;99.90;;;;;;5093690;28;20195;-82
2021/04/05 11:11:02;;;;;;;2.20;2.10;;;6.20;99.90;;;;;;5090139;28;20239;-82
2021/04/05 11:13:29;;;;;;;2.10;2.00;;;6.00;99.90;;;;;;5082078;28;20196;-80
2021/04/05 11:15:57;;;;;;;2.15;1.95;;;5.70;99.90;;;;;;5084352;28;20190;-80
2021/04/05 11:18:25;;;;;;;2.65;2.28;;;5.40;99.90;;;;;;5089778;28;20720;-80
2021/04/05 11:20:57;;;;;;;6.18;2.58;;;5.30;99.90;;;;;;5082960;28;20233;-79
2021/04/05 11:23:24;;;;;;;2.10;2.00;;;5.20;99.40;;;;;;5090865;28;20235;-80
2021/04/05 11:25:58;;;;;;;2.15;2.05;;;5.20;99.90;;;;;;5089872;28;20198;-81
2021/04/05 11:28:31;;;;;;;2.45;2.05;;;5.20;99.80;;;;;;5086420;28;20641;-80
2021/04/05 11:31:01;;;;;;;8.35;2.28;;;5.20;99.50;;;;;;5083348;28;20649;-79
2021/04/05 11:33:30;;;;;;;4.90;2.55;;;5.30;99.80;;;;;;5082839;28;20199;-80
2021/04/05 11:35:59;;;;;;;3.20;2.22;;;5.50;99.70;;;;;;5082060;28;20200;-80
2021/04/05 11:38:26;;;;;;;3.58;2.10;;;5.60;99.70;;;;;;5090741;28;20205;-82
2021/04/05 11:40:58;;;;;;;2.15;2.00;;;5.70;99.60;;;;;;5084350;28;20222;-79
2021/04/05 11:43:29;;;;;;;2.85;2.42;;;5.90;99.60;;;;;;5077050;28;20195;-80
2021/04/05 11:46:05;;;;;;;2.38;2.25;;;6.00;99.30;;;;;;5076066;28;20200;-80
2021/04/05 11:48:31;;;;;;;3.38;2.70;;;6.10;99.70;;;;;;5077180;28;20196;-81
2021/04/05 11:50:59;;;;;;;5.90;2.65;;;6.30;98.90;;;;;;5081773;28;20242;-81
2021/04/05 11:53:34;;;;;;;6.40;4.05;;;6.40;98.40;;;;;;5077693;28;20221;-80
2021/04/05 11:56:11;;;;;;;4.20;3.00;;;6.50;97.70;;;;;;5084134;28;20226;-80
2021/04/05 11:58:41;;;;;;;2.60;2.40;;;6.60;97.90;;;;;;5075034;28;20293;-81
2021/04/05 12:01:15;;;;;;;11.23;3.03;;;6.70;97.00;;;;;;5081871;28;20231;-80
2021/04/05 12:03:51;;;;;;;6.32;3.92;;;6.80;96.40;;;;;;5079674;28;20203;-79
2021/04/05 12:06:21;;;;;;;4.70;2.70;;;6.70;95.50;;;;;;5081482;28;20605;-80
2021/04/05 12:08:52;;;;;;;6.18;3.30;;;6.70;95.70;;;;;;5078353;28;20234;-80
2021/04/05 12:11:21;;;;;;;9.52;3.25;;;6.70;95.70;;;;;;5079050;28;20646;-75
2021/04/05 12:13:51;;;;;;;8.77;3.35;;;6.70;93.60;;;;;;5085978;28;20195;-75
2021/04/05 12:16:22;;;;;;;6.00;3.20;;;6.70;93.70;;;;;;5082525;28;20189;-75
2021/04/05 12:18:52;;;;;;;2.70;2.50;;;6.70;93.60;;;;;;5087114;28;20206;-75
2021/04/05 12:21:19;;;;;;;6.97;3.20;;;6.70;94.50;;;;;;5079320;28;20787;-76
2021/04/05 12:23:55;;;;;;;12.98;3.35;;;6.70;94.60;;;;;;5074990;28;20281;-76
2021/04/05 12:26:25;;;;;;;8.07;3.58;;;6.70;94.00;;;;;;5082953;28;20196;-76
2021/04/05 12:28:54;;;;;;;5.03;3.17;;;6.70;94.00;;;;;;5086909;28;20180;-76
2021/04/05 12:31:24;;;;;;;4.18;2.72;;;6.60;94.70;;;;;;5079979;28;20614;-77
2021/04/05 12:33:53;;;;;;;6.25;3.05;;;6.40;94.40;;;;;;5084947;28;20335;-76
2021/04/05 12:36:21;;;;;;;7.03;3.25;;;6.30;94.50;;;;;;5084886;28;20603;-76
2021/04/05 12:38:51;;;;;;;10.82;4.45;;;6.20;94.80;;;;;;5087651;28;20607;-77
2021/04/05 12:41:19;;;;;;;8.52;4.05;;;6.20;95.00;;;;;;5080533;28;20226;-76
2021/04/05 12:43:51;;;;;;;8.70;3.15;;;6.10;94.80;;;;;;5078482;28;20207;-76
2021/04/05 12:46:19;;;;;;;11.10;3.75;;;6.20;94.00;;;;;;5083519;28;20558;-77
2021/04/05 12:48:47;;;;;;;10.30;3.20;;;6.20;93.80;;;;;;5083524;28;20666;-76
2021/04/05 12:51:23;;;;;;;5.97;2.63;;;6.30;93.20;;;;;;5077301;28;20951;-77
2021/04/05 12:53:58;;;;;;;7.88;3.13;;;6.40;92.90;;;;;;5081427;28;20278;-77
2021/04/05 12:56:25;;;;;;;5.72;3.30;;;6.60;92.80;;;;;;5080069;28;20183;-75
2021/04/05 12:58:53;;;;;;;4.60;3.58;;;6.70;91.70;;;;;;5082412;28;20202;-76
2021/04/05 13:01:25;;;;;;;5.57;2.95;;;6.80;91.90;;;;;;5082987;28;20228;-77
2021/04/05 13:03:53;;;;;;;4.25;2.75;;;6.80;90.70;;;;;;5075818;28;20192;-76
2021/04/05 13:06:23;;;;;;;5.07;2.78;;;6.80;90.90;;;;;;5085918;28;20201;-77
2021/04/05 13:08:54;;;;;;;5.10;4.03;;;6.70;89.90;;;;;;5083381;28;20192;-76